sensor_id;sensor_type;location;lat;lon;timestamp;temperature;humidity
19864;DHT22;10094;48.820;9.226;2023-05-10T00:03:04;16.00;99.90
19864;DHT22;10094;48.820;9.226;2023-05-10T00:09:47;15.40;99.90
19864;DHT22;10094;48.820;9.226;2023-05-10T00:16:29;15.20;99.90
19864;DHT22;10094;48.820;9.226;2023-05-10T00:23:12;15.10;99.90
19864;DHT22;10094;48.820;9.226;2023-05-10T00:29:55;15.10;99.90
19864;DHT22;10094;48.820;9.226;2023-05-10T00:36:37;15.10;99.90
19864;DHT22;10094;48.820;9.226;2023-05-10T00:43:21;15.10;99.90
19864;DHT22;10094;48.820;9.226;2023-05-10T00:50:04;15.10;99.90
19864;DHT22;10094;48.820;9.226;2023-05-10T00:56:47;15.10;99.90
19864;DHT22;10094;48.820;9.226;2023-05-10T01:03:32;14.80;99.90
19864;DHT22;10094;48.820;9.226;2023-05-10T01:10:14;14.80;99.90
19864;DHT22;10094;48.820;9.226;2023-05-10T01:16:57;14.80;99.90
19864;DHT22;10094;48.820;9.226;2023-05-10T01:37:58;14.60;99.90
19864;DHT22;10094;48.820;9.226;2023-05-10T01:45:47;14.60;99.90
19864;DHT22;10094;48.820;9.226;2023-05-10T01:52:07;14.80;99.90
19864;DHT22;10094;48.820;9.226;2023-05-10T01:58:51;14.70;99.90
19864;DHT22;10094;48.820;9.226;2023-05-10T02:05:35;14.70;99.90
19864;DHT22;10094;48.820;9.226;2023-05-10T02:12:19;14.60;99.90
19864;DHT22;10094;48.820;9.226;2023-05-10T02:19:03;14.60;99.90
19864;DHT22;10094;48.820;9.226;2023-05-10T02:25:47;14.50;99.90
19864;DHT22;10094;48.820;9.226;2023-05-10T02:32:31;14.60;99.90
19864;DHT22;10094;48.820;9.226;2023-05-10T02:39:14;14.40;99.90
19864;DHT22;10094;48.820;9.226;2023-05-10T02:45:57;14.40;99.90
19864;DHT22;10094;48.820;9.226;2023-05-10T02:52:44;14.50;99.90
19864;DHT22;10094;48.820;9.226;2023-05-10T02:59:27;14.60;99.90
19864;DHT22;10094;48.820;9.226;2023-05-10T03:06:09;14.50;99.90
19864;DHT22;10094;48.820;9.226;2023-05-10T03:13:39;14.50;99.90
19864;DHT22;10094;48.820;9.226;2023-05-10T03:20:31;14.60;99.90
19864;DHT22;10094;48.820;9.226;2023-05-10T03:27:15;14.60;99.90
19864;DHT22;10094;48.820;9.226;2023-05-10T03:33:59;14.70;99.90
19864;DHT22;10094;48.820;9.226;2023-05-10T03:40:42;14.60;99.90
19864;DHT22;10094;48.820;9.226;2023-05-10T03:47:25;14.60;99.90
19864;DHT22;10094;48.820;9.226;2023-05-10T03:54:07;14.80;99.90
19864;DHT22;10094;48.820;9.226;2023-05-10T04:00:51;14.70;99.90
19864;DHT22;10094;48.820;9.226;2023-05-10T04:07:33;14.70;99.90
19864;DHT22;10094;48.820;9.226;2023-05-10T04:14:16;14.80;99.90
19864;DHT22;10094;48.820;9.226;2023-05-10T04:20:58;14.80;99.90
19864;DHT22;10094;48.820;9.226;2023-05-10T04:27:41;14.70;99.90
19864;DHT22;10094;48.820;9.226;2023-05-10T04:34:23;14.80;99.90
19864;DHT22;10094;48.820;9.226;2023-05-10T04:41:10;14.80;99.90
19864;DHT22;10094;48.820;9.226;2023-05-10T04:47:52;14.80;99.90
19864;DHT22;10094;48.820;9.226;2023-05-10T04:54:34;14.90;99.90
19864;DHT22;10094;48.820;9.226;2023-05-10T05:01:17;15.00;99.90
19864;DHT22;10094;48.820;9.226;2023-05-10T05:07:59;15.30;99.90
19864;DHT22;10094;48.820;9.226;2023-05-10T05:14:42;15.50;99.90
19864;DHT22;10094;48.820;9.226;2023-05-10T05:21:25;15.80;99.90
19864;DHT22;10094;48.820;9.226;2023-05-10T05:28:08;16.20;99.90
19864;DHT22;10094;48.820;9.226;2023-05-10T05:34:51;16.30;99.90
19864;DHT22;10094;48.820;9.226;2023-05-10T05:41:34;16.30;99.90
19864;DHT22;10094;48.820;9.226;2023-05-10T05:48:16;16.60;99.90
19864;DHT22;10094;48.820;9.226;2023-05-10T05:54:58;16.90;99.90
19864;DHT22;10094;48.820;9.226;2023-05-10T06:01:41;17.20;99.90
19864;DHT22;10094;48.820;9.226;2023-05-10T06:08:23;17.40;99.90
19864;DHT22;10094;48.820;9.226;2023-05-10T06:15:06;17.10;99.90
19864;DHT22;10094;48.820;9.226;2023-05-10T06:21:48;17.10;99.90
19864;DHT22;10094;48.820;9.226;2023-05-10T06:28:34;17.20;99.90
19864;DHT22;10094;48.820;9.226;2023-05-10T06:35:16;17.00;99.90
19864;DHT22;10094;48.820;9.226;2023-05-10T06:41:59;17.10;99.90
19864;DHT22;10094;48.820;9.226;2023-05-10T06:48:47;17.00;99.90
19864;DHT22;10094;48.820;9.226;2023-05-10T06:55:29;16.90;99.90
19864;DHT22;10094;48.820;9.226;2023-05-10T07:02:11;17.00;99.90
19864;DHT22;10094;48.820;9.226;2023-05-10T07:08:54;17.10;99.90
19864;DHT22;10094;48.820;9.226;2023-05-10T07:15:36;17.30;99.90
19864;DHT22;10094;48.820;9.226;2023-05-10T07:22:19;17.50;99.90
19864;DHT22;10094;48.820;9.226;2023-05-10T07:29:01;18.20;99.90
19864;DHT22;10094;48.820;9.226;2023-05-10T07:35:44;18.90;99.90
19864;DHT22;10094;48.820;9.226;2023-05-10T07:42:26;18.80;99.90
19864;DHT22;10094;48.820;9.226;2023-05-10T07:49:09;19.20;99.90
19864;DHT22;10094;48.820;9.226;2023-05-10T07:55:53;19.40;99.90
19864;DHT22;10094;48.820;9.226;2023-05-10T08:02:36;19.60;99.90
19864;DHT22;10094;48.820;9.226;2023-05-10T08:09:19;19.30;99.90
19864;DHT22;10094;48.820;9.226;2023-05-10T08:16:06;18.70;99.90
19864;DHT22;10094;48.820;9.226;2023-05-10T08:22:49;18.60;99.90
19864;DHT22;10094;48.820;9.226;2023-05-10T08:29:33;18.30;99.90
19864;DHT22;10094;48.820;9.226;2023-05-10T08:36:30;18.20;99.90
19864;DHT22;10094;48.820;9.226;2023-05-10T08:43:14;18.60;99.90
19864;DHT22;10094;48.820;9.226;2023-05-10T08:49:58;18.40;99.90
19864;DHT22;10094;48.820;9.226;2023-05-10T08:56:41;18.10;99.90
19864;DHT22;10094;48.820;9.226;2023-05-10T09:03:24;18.60;99.90
19864;DHT22;10094;48.820;9.226;2023-05-10T09:10:07;19.00;99.90
19864;DHT22;10094;48.820;9.226;2023-05-10T09:16:50;19.80;99.90
19864;DHT22;10094;48.820;9.226;2023-05-10T09:23:33;20.00;99.90
19864;DHT22;10094;48.820;9.226;2023-05-10T09:30:29;20.50;99.90
19864;DHT22;10094;48.820;9.226;2023-05-10T09:37:11;21.00;99.90
19864;DHT22;10094;48.820;9.226;2023-05-10T09:43:55;20.60;99.90
19864;DHT22;10094;48.820;9.226;2023-05-10T09:50:38;20.70;99.90
19864;DHT22;10094;48.820;9.226;2023-05-10T09:57:22;21.90;97.80
19864;DHT22;10094;48.820;9.226;2023-05-10T10:04:07;21.70;97.70
19864;DHT22;10094;48.820;9.226;2023-05-10T10:10:49;19.90;99.90
19864;DHT22;10094;48.820;9.226;2023-05-10T10:17:36;19.00;99.90
19864;DHT22;10094;48.820;9.226;2023-05-10T10:24:20;20.00;99.90
19864;DHT22;10094;48.820;9.226;2023-05-10T10:38:00;20.10;99.90
19864;DHT22;10094;48.820;9.226;2023-05-10T10:44:43;19.70;99.90
19864;DHT22;10094;48.820;9.226;2023-05-10T10:51:28;20.10;99.90
19864;DHT22;10094;48.820;9.226;2023-05-10T10:58:28;20.30;99.90
19864;DHT22;10094;48.820;9.226;2023-05-10T11:12:14;20.90;98.40
19864;DHT22;10094;48.820;9.226;2023-05-10T11:19:02;21.10;95.30
19864;DHT22;10094;48.820;9.226;2023-05-10T11:25:46;20.60;96.30
19864;DHT22;10094;48.820;9.226;2023-05-10T11:32:29;20.10;97.70
19864;DHT22;10094;48.820;9.226;2023-05-10T11:39:11;20.00;97.70
19864;DHT22;10094;48.820;9.226;2023-05-10T11:45:54;20.20;96.70
19864;DHT22;10094;48.820;9.226;2023-05-10T11:52:37;20.40;96.40
19864;DHT22;10094;48.820;9.226;2023-05-10T11:59:20;20.70;95.50
19864;DHT22;10094;48.820;9.226;2023-05-10T12:06:02;20.40;95.30
19864;DHT22;10094;48.820;9.226;2023-05-10T12:12:46;20.30;95.50
19864;DHT22;10094;48.820;9.226;2023-05-10T12:19:40;19.50;97.30
19864;DHT22;10094;48.820;9.226;2023-05-10T12:26:24;19.30;98.00
19864;DHT22;10094;48.820;9.226;2023-05-10T12:33:11;19.20;98.80
19864;DHT22;10094;48.820;9.226;2023-05-10T12:39:55;19.30;97.50
19864;DHT22;10094;48.820;9.226;2023-05-10T12:46:37;19.70;97.20
19864;DHT22;10094;48.820;9.226;2023-05-10T12:53:20;19.70;96.00
19864;DHT22;10094;48.820;9.226;2023-05-10T13:00:02;20.10;95.80
19864;DHT22;10094;48.820;9.226;2023-05-10T13:06:47;20.50;94.30
19864;DHT22;10094;48.820;9.226;2023-05-10T13:13:29;19.90;94.70
19864;DHT22;10094;48.820;9.226;2023-05-10T13:20:11;19.40;96.20
19864;DHT22;10094;48.820;9.226;2023-05-10T13:26:54;19.50;96.40
19864;DHT22;10094;48.820;9.226;2023-05-10T13:33:36;19.50;96.10
19864;DHT22;10094;48.820;9.226;2023-05-10T13:40:18;19.10;96.80
19864;DHT22;10094;48.820;9.226;2023-05-10T13:47:01;19.50;96.60
19864;DHT22;10094;48.820;9.226;2023-05-10T13:53:44;19.60;96.60
19864;DHT22;10094;48.820;9.226;2023-05-10T14:00:26;20.20;94.90
19864;DHT22;10094;48.820;9.226;2023-05-10T14:07:09;20.30;94.70
19864;DHT22;10094;48.820;9.226;2023-05-10T14:13:51;20.10;93.70
19864;DHT22;10094;48.820;9.226;2023-05-10T14:20:34;19.80;94.70
19864;DHT22;10094;48.820;9.226;2023-05-10T14:27:16;19.80;94.60
19864;DHT22;10094;48.820;9.226;2023-05-10T14:33:58;20.20;93.80
19864;DHT22;10094;48.820;9.226;2023-05-10T14:40:41;20.60;93.30
19864;DHT22;10094;48.820;9.226;2023-05-10T14:47:24;20.60;90.60
19864;DHT22;10094;48.820;9.226;2023-05-10T14:54:07;20.60;91.00
19864;DHT22;10094;48.820;9.226;2023-05-10T15:00:50;20.60;91.70
19864;DHT22;10094;48.820;9.226;2023-05-10T15:07:32;20.60;91.80
19864;DHT22;10094;48.820;9.226;2023-05-10T15:14:15;20.70;91.50
19864;DHT22;10094;48.820;9.226;2023-05-10T15:20:57;20.30;92.10
19864;DHT22;10094;48.820;9.226;2023-05-10T15:27:40;20.10;92.70
19864;DHT22;10094;48.820;9.226;2023-05-10T15:34:22;20.20;93.40
19864;DHT22;10094;48.820;9.226;2023-05-10T15:41:05;19.90;94.40
19864;DHT22;10094;48.820;9.226;2023-05-10T15:47:47;19.50;94.30
19864;DHT22;10094;48.820;9.226;2023-05-10T15:54:30;19.80;94.70
19864;DHT22;10094;48.820;9.226;2023-05-10T16:01:12;19.60;94.70
19864;DHT22;10094;48.820;9.226;2023-05-10T16:07:55;19.30;96.20
19864;DHT22;10094;48.820;9.226;2023-05-10T16:14:37;19.00;96.50
19864;DHT22;10094;48.820;9.226;2023-05-10T16:21:20;18.60;99.00
19864;DHT22;10094;48.820;9.226;2023-05-10T16:28:02;18.50;98.70
19864;DHT22;10094;48.820;9.226;2023-05-10T16:34:44;18.40;99.90
19864;DHT22;10094;48.820;9.226;2023-05-10T16:41:27;18.30;99.90
19864;DHT22;10094;48.820;9.226;2023-05-10T16:48:09;18.40;99.40
19864;DHT22;10094;48.820;9.226;2023-05-10T16:54:54;18.30;99.90
19864;DHT22;10094;48.820;9.226;2023-05-10T17:01:36;18.30;98.60
19864;DHT22;10094;48.820;9.226;2023-05-10T17:08:19;18.50;99.30
19864;DHT22;10094;48.820;9.226;2023-05-10T17:15:02;18.40;99.90
19864;DHT22;10094;48.820;9.226;2023-05-10T17:21:45;18.20;99.50
19864;DHT22;10094;48.820;9.226;2023-05-10T17:28:27;17.90;99.90
19864;DHT22;10094;48.820;9.226;2023-05-10T17:35:10;17.70;99.90
19864;DHT22;10094;48.820;9.226;2023-05-10T17:41:52;17.70;99.90
19864;DHT22;10094;48.820;9.226;2023-05-10T17:48:35;17.50;99.90
19864;DHT22;10094;48.820;9.226;2023-05-10T17:55:18;17.60;99.90
19864;DHT22;10094;48.820;9.226;2023-05-10T18:02:01;17.70;99.90
19864;DHT22;10094;48.820;9.226;2023-05-10T18:08:46;17.60;99.90
19864;DHT22;10094;48.820;9.226;2023-05-10T18:15:32;17.50;99.90
19864;DHT22;10094;48.820;9.226;2023-05-10T18:22:15;17.30;99.90
19864;DHT22;10094;48.820;9.226;2023-05-10T18:29:00;17.10;99.90
19864;DHT22;10094;48.820;9.226;2023-05-10T18:35:42;17.00;99.90
19864;DHT22;10094;48.820;9.226;2023-05-10T18:42:25;16.80;99.90
19864;DHT22;10094;48.820;9.226;2023-05-10T18:49:08;16.50;99.90
19864;DHT22;10094;48.820;9.226;2023-05-10T18:55:57;16.50;99.90
19864;DHT22;10094;48.820;9.226;2023-05-10T19:02:40;16.20;99.90
19864;DHT22;10094;48.820;9.226;2023-05-10T19:09:23;16.10;99.90
19864;DHT22;10094;48.820;9.226;2023-05-10T19:16:09;16.10;99.90
19864;DHT22;10094;48.820;9.226;2023-05-10T19:22:55;16.00;99.90
19864;DHT22;10094;48.820;9.226;2023-05-10T19:29:50;15.90;99.90
19864;DHT22;10094;48.820;9.226;2023-05-10T19:36:33;15.70;99.90
19864;DHT22;10094;48.820;9.226;2023-05-10T19:43:16;15.60;99.90
19864;DHT22;10094;48.820;9.226;2023-05-10T19:49:59;15.60;99.90
19864;DHT22;10094;48.820;9.226;2023-05-10T19:56:41;15.50;99.90
19864;DHT22;10094;48.820;9.226;2023-05-10T20:03:24;15.60;99.90
19864;DHT22;10094;48.820;9.226;2023-05-10T20:10:06;15.60;99.90
19864;DHT22;10094;48.820;9.226;2023-05-10T20:16:49;15.50;99.90
19864;DHT22;10094;48.820;9.226;2023-05-10T20:23:31;15.40;99.90
19864;DHT22;10094;48.820;9.226;2023-05-10T20:30:14;15.40;99.90
19864;DHT22;10094;48.820;9.226;2023-05-10T20:36:57;15.40;99.90
19864;DHT22;10094;48.820;9.226;2023-05-10T20:43:39;15.40;99.90
19864;DHT22;10094;48.820;9.226;2023-05-10T20:50:21;15.40;99.90
19864;DHT22;10094;48.820;9.226;2023-05-10T20:57:04;15.40;99.90
19864;DHT22;10094;48.820;9.226;2023-05-10T21:03:46;15.20;99.90
19864;DHT22;10094;48.820;9.226;2023-05-10T21:10:28;15.20;99.90
19864;DHT22;10094;48.820;9.226;2023-05-10T21:17:11;15.10;99.90
19864;DHT22;10094;48.820;9.226;2023-05-10T21:23:53;15.10;99.90
19864;DHT22;10094;48.820;9.226;2023-05-10T21:30:36;15.20;99.90
19864;DHT22;10094;48.820;9.226;2023-05-10T21:37:18;15.20;99.90
19864;DHT22;10094;48.820;9.226;2023-05-10T21:44:00;15.00;99.90
19864;DHT22;10094;48.820;9.226;2023-05-10T21:50:43;15.10;99.90
19864;DHT22;10094;48.820;9.226;2023-05-10T21:57:25;15.00;99.90
19864;DHT22;10094;48.820;9.226;2023-05-10T22:04:08;15.00;99.90
19864;DHT22;10094;48.820;9.226;2023-05-10T22:10:51;15.00;99.90
19864;DHT22;10094;48.820;9.226;2023-05-10T22:17:33;14.80;99.90
19864;DHT22;10094;48.820;9.226;2023-05-10T22:24:15;14.80;99.90
19864;DHT22;10094;48.820;9.226;2023-05-10T22:30:58;14.80;99.90
19864;DHT22;10094;48.820;9.226;2023-05-10T22:37:40;14.60;99.90
19864;DHT22;10094;48.820;9.226;2023-05-10T22:44:22;14.60;99.90
19864;DHT22;10094;48.820;9.226;2023-05-10T22:51:05;14.70;99.90
19864;DHT22;10094;48.820;9.226;2023-05-10T22:57:48;14.40;99.90
19864;DHT22;10094;48.820;9.226;2023-05-10T23:04:30;14.30;99.90
19864;DHT22;10094;48.820;9.226;2023-05-10T23:11:13;14.30;99.90
19864;DHT22;10094;48.820;9.226;2023-05-10T23:17:55;14.20;99.90
19864;DHT22;10094;48.820;9.226;2023-05-10T23:24:38;14.20;99.90
19864;DHT22;10094;48.820;9.226;2023-05-10T23:31:20;14.10;99.90
19864;DHT22;10094;48.820;9.226;2023-05-10T23:38:02;14.10;99.90
19864;DHT22;10094;48.820;9.226;2023-05-10T23:44:45;13.90;99.90
19864;DHT22;10094;48.820;9.226;2023-05-10T23:51:27;13.90;99.90
19864;DHT22;10094;48.820;9.226;2023-05-10T23:58:10;14.00;99.90
